Time;durP1;ratioP1;P1;durP2;ratioP2;P2;SDS_P1;SDS_P2;PMS_P1;PMS_P2;Temp;Humidity;BMP_temperature;BMP_pressure;BME280_temperature;BME280_humidity;BME280_pressure;Samples;Min_cycle;Max_cycle;Signal;HPM_P1;HPM_P2
2023/06/17 00:01:57;;;;;;;13.50;11.30;;;;;;;14.42;62.17;100569.23;104615;1297;67546;-89
2023/06/17 00:05:27;;;;;;;14.10;11.70;;;;;;;14.33;62.25;100569.66;104749;1294;74267;-88
2023/06/17 00:09:14;;;;;;;12.30;11.20;;;;;;;14.26;62.37;100568.85;104874;1288;60525;-88
2023/06/17 00:12:31;;;;;;;11.80;10.80;;;;;;;14.22;62.39;100567.75;104841;1289;60797;-88
2023/06/17 00:15:47;;;;;;;14.10;10.60;;;;;;;14.24;62.52;100560.41;104830;1288;74251;-88
2023/06/17 00:19:17;;;;;;;13.00;11.90;;;;;;;14.29;62.43;100555.05;104915;1292;67474;-88
2023/06/17 00:22:56;;;;;;;13.00;11.70;;;;;;;14.30;62.54;100555.21;104936;1292;71378;-88
2023/06/17 00:26:38;;;;;;;14.40;12.50;;;;;;;14.19;62.55;100554.68;105280;1289;60724;-88
2023/06/17 00:30:25;;;;;;;13.90;11.80;;;;;;;14.11;62.67;100553.58;104819;1295;60420;-88
2023/06/17 00:33:32;;;;;;;12.00;10.90;;;;;;;14.11;62.79;100555.80;104486;1294;73299;-88
2023/06/17 00:36:58;;;;;;;11.70;10.60;;;;;;;14.12;62.68;100559.42;104577;1298;67293;-88
2023/06/17 00:40:30;;;;;;;12.10;11.10;;;;;;;14.08;62.61;100559.20;104425;1294;71138;-88
2023/06/17 00:43:53;;;;;;;12.60;11.40;;;;;;;14.06;62.75;100563.23;104445;1298;60579;-88
2023/06/17 00:47:39;;;;;;;13.40;11.70;;;;;;;14.06;62.78;100562.21;104863;1298;59223;-88
2023/06/17 00:50:49;;;;;;;11.70;10.70;;;;;;;14.03;62.86;100562.14;104421;1298;71687;-88
2023/06/17 00:54:34;;;;;;;12.10;11.00;;;;;;;14.01;62.81;100563.43;104595;1294;67617;-88
2023/06/17 00:58:20;;;;;;;12.70;11.60;;;;;;;13.96;62.76;100566.36;104435;1299;71953;-89
2023/06/17 01:01:50;;;;;;;12.90;11.60;;;;;;;13.74;62.79;100564.08;104348;1296;60417;-88
2023/06/17 01:05:10;;;;;;;11.40;10.40;;;;;;;13.67;63.14;100564.13;104466;1298;60778;-88
2023/06/17 01:08:44;;;;;;;11.10;10.10;;;;;;;13.70;63.10;100560.39;104254;1295;75256;-88
2023/06/17 01:11:57;;;;;;;12.70;11.60;;;;;;;13.71;63.04;100560.52;103405;1305;524601;-88
2023/06/17 01:14:50;;;;;;;13.10;12.00;;;;;;;13.70;63.12;100558.48;103825;1303;71314;-88
2023/06/17 01:17:57;;;;;;;10.70;9.80;;;;;;;13.70;63.19;100556.93;104197;1303;60542;-88
2023/06/17 01:21:13;;;;;;;11.60;10.60;;;;;;;13.67;63.09;100554.58;103748;1302;60917;-88
2023/06/17 01:24:07;;;;;;;13.80;11.50;;;;;;;13.64;63.17;100554.33;104124;1299;72438;-88
2023/06/17 01:27:54;;;;;;;12.10;10.80;;;;;;;13.61;63.30;100554.41;104152;1297;67203;-88
2023/06/17 01:31:04;;;;;;;12.80;11.50;;;;;;;13.58;63.30;100552.59;104096;1297;71170;-88
2023/06/17 01:33:52;;;;;;;11.50;10.60;;;;;;;13.58;63.35;100557.61;104358;1301;59603;-88
2023/06/17 01:37:19;;;;;;;12.00;11.00;;;;;;;13.56;63.37;100555.08;104203;1296;60284;-89
2023/06/17 01:40:44;;;;;;;9.60;8.80;;;;;;;13.52;63.35;100552.09;104260;1296;72339;-89
2023/06/17 01:44:30;;;;;;;10.30;9.50;;;;;;;13.40;63.27;100550.37;100620;1303;5181530;-89
2023/06/17 01:48:16;;;;;;;8.50;7.70;;;;;;;13.28;63.37;100554.52;104401;1290;71345;-89
2023/06/17 01:51:30;;;;;;;9.00;8.10;;;;;;;13.21;63.39;100556.61;104915;1288;60561;-89
2023/06/17 01:54:40;;;;;;;8.50;7.80;;;;;;;13.15;63.34;100553.46;105055;1288;60502;-89
2023/06/17 01:57:45;;;;;;;8.90;8.20;;;;;;;13.13;63.47;100551.44;104985;1289;73406;-89
2023/06/17 02:00:36;;;;;;;8.60;7.80;;;;;;;13.13;63.48;100551.60;105049;1288;71188;-90
2023/06/17 02:03:35;;;;;;;9.10;8.40;;;;;;;13.08;63.42;100549.69;104961;1291;72184;-89
2023/06/17 02:06:44;;;;;;;9.50;8.80;;;;;;;13.03;63.55;100554.50;104845;1289;60402;-89
2023/06/17 02:09:58;;;;;;;;;;;;;;;13.01;63.58;100550.90;104976;1288;62018;-89
2023/06/17 02:13:24;;;;;;;8.40;7.70;;;;;;;12.99;63.64;100552.54;105032;1288;72347;-89
2023/06/17 02:16:20;;;;;;;7.90;7.30;;;;;;;12.89;63.63;100551.77;105099;1288;68566;-89
2023/06/17 02:19:28;;;;;;;8.20;7.50;;;;;;;12.83;63.69;100552.11;104896;1288;71386;-88
2023/06/17 02:22:15;;;;;;;8.70;8.00;;;;;;;12.85;63.77;100550.34;104777;1289;60468;-89
2023/06/17 02:25:03;;;;;;;9.10;8.50;;;;;;;12.87;63.78;100545.95;104910;1292;60373;-89
2023/06/17 02:27:51;;;;;;;10.20;9.40;;;;;;;12.89;63.81;100546.58;104890;1288;72427;-89
2023/06/17 02:30:38;;;;;;;9.80;9.00;;;;;;;12.82;63.81;100548.84;104811;1289;68425;-88
2023/06/17 02:33:25;;;;;;;8.60;7.90;;;;;;;12.74;63.91;100549.92;104931;1291;71167;-89
2023/06/17 02:37:12;;;;;;;8.90;8.20;;;;;;;12.70;64.02;100546.73;104879;1288;61087;-88
2023/06/17 02:40:19;;;;;;;8.40;7.70;;;;;;;12.69;64.04;100554.02;105039;1288;60419;-89
2023/06/17 02:43:50;;;;;;;8.80;8.10;;;;;;;12.70;63.99;100553.32;104999;1288;74239;-89
2023/06/17 02:47:24;;;;;;;9.00;8.30;;;;;;;12.59;64.13;100553.58;105193;1287;67573;-89
2023/06/17 02:50:40;;;;;;;10.50;9.40;;;;;;;12.60;64.36;100559.63;105151;1287;71317;-89
2023/06/17 02:54:06;;;;;;;9.30;8.60;;;;;;;12.64;64.24;100558.83;104864;1291;60631;-89
2023/06/17 02:57:52;;;;;;;8.20;7.60;;;;;;;12.65;64.18;100562.44;105045;1287;60949;-89
2023/06/17 03:01:42;;;;;;;9.30;8.50;;;;;;;12.67;64.22;100560.14;105038;1288;73261;-89
2023/06/17 03:05:09;;;;;;;10.00;9.20;;;;;;;12.64;64.34;100557.63;104997;1288;67471;-89
2023/06/17 03:08:54;;;;;;;7.50;6.90;;;;;;;12.69;64.28;100550.41;105008;1289;71165;-88
2023/06/17 03:11:42;;;;;;;8.80;8.10;;;;;;;12.72;64.31;100545.48;104958;1288;60216;-88
2023/06/17 03:14:29;;;;;;;10.10;9.30;;;;;;;12.73;64.32;100547.00;104761;1288;60917;-88
2023/06/17 03:17:32;;;;;;;12.20;11.00;;;;;;;12.74;64.35;100544.56;104955;1288;74283;-91
2023/06/17 03:20:42;;;;;;;11.90;10.90;;;;;;;12.75;64.35;100545.39;104971;1289;70072;-88
2023/06/17 03:23:45;;;;;;;10.10;9.20;;;;;;;12.71;64.43;100552.08;105259;1286;71372;-88
2023/06/17 03:27:13;;;;;;;10.50;9.70;;;;;;;12.70;64.47;100550.73;105138;1288;60458;-89
2023/06/17 03:30:42;;;;;;;8.80;8.10;;;;;;;12.71;64.59;100556.23;104990;1288;60521;-89
2023/06/17 03:34:12;;;;;;;8.90;8.10;;;;;;;12.76;64.70;100565.08;105097;1291;72485;-88
2023/06/17 03:37:47;;;;;;;9.90;9.10;;;;;;;12.86;64.65;100566.91;105004;1288;68710;-88
2023/06/17 03:40:55;;;;;;;9.30;8.40;;;;;;;12.93;64.68;100557.39;105128;1287;72388;-89
2023/06/17 03:44:22;;;;;;;9.20;8.50;;;;;;;13.00;64.65;100561.33;104910;1287;60443;-89
2023/06/17 03:48:07;;;;;;;12.50;10.30;;;;;;;13.02;64.63;100556.05;105299;1291;58986;-89
2023/06/17 03:51:16;;;;;;;12.30;11.20;;;;;;;13.04;64.93;100561.73;104890;1291;72354;-88
2023/06/17 03:54:12;;;;;;;9.00;8.20;;;;;;;13.03;64.92;100557.09;104869;1288;67368;-88
2023/06/17 03:57:40;;;;;;;10.10;9.20;;;;;;;13.05;65.12;100562.91;104909;1288;72529;-87
2023/06/17 04:00:47;;;;;;;10.80;9.80;;;;;;;13.13;65.15;100562.52;104905;1288;60476;-87
2023/06/17 04:03:40;;;;;;;14.00;9.70;;;;;;;13.18;65.31;100565.54;104794;1288;60399;-88
2023/06/17 04:06:35;;;;;;;11.20;10.10;;;;;;;13.31;65.44;100565.16;105082;1286;71777;-88
2023/06/17 04:09:41;;;;;;;11.20;10.10;;;;;;;13.50;65.51;100557.69;104859;1288;67662;-88
2023/06/17 04:12:27;;;;;;;;;;;;;;;13.76;65.55;100556.23;104851;1288;74760;-88
2023/06/17 04:15:45;;;;;;;11.40;10.50;;;;;;;13.99;65.54;100559.48;104826;1288;60391;-88
2023/06/17 04:19:01;;;;;;;11.50;10.50;;;;;;;14.19;65.57;100562.15;105063;1287;62241;-88
2023/06/17 04:22:28;;;;;;;13.40;12.30;;;;;;;14.35;65.57;100561.64;104951;1288;73810;-88
2023/06/17 04:25:56;;;;;;;13.90;12.60;;;;;;;14.58;65.72;100555.67;106464;1287;68372;-89
2023/06/17 04:29:42;;;;;;;14.40;12.80;;;;;;;14.92;65.84;100555.75;104980;1287;73660;-89
2023/06/17 04:33:14;;;;;;;13.70;12.50;;;;;;;15.18;65.57;100556.15;106471;1287;58671;-89
2023/06/17 04:36:59;;;;;;;15.80;14.10;;;;;;;15.39;65.68;100558.52;105512;1288;59086;-89
2023/06/17 04:40:31;;;;;;;14.50;13.20;;;;;;;15.50;65.80;100554.13;105520;1288;74253;-87
2023/06/17 04:43:57;;;;;;;15.10;13.70;;;;;;;15.58;65.80;100550.20;104972;1287;70055;-88
2023/06/17 04:47:44;;;;;;;14.50;13.10;;;;;;;15.65;65.91;100544.20;104902;1287;71373;-88
2023/06/17 04:51:10;;;;;;;17.90;13.80;;;;;;;15.69;66.04;100543.33;105059;1289;59246;-88
2023/06/17 04:54:38;;;;;;;16.00;14.50;;;;;;;15.90;66.26;100546.89;104923;1287;59933;-88
2023/06/17 04:58:24;;;;;;;14.90;13.60;;;;;;;16.23;66.28;100548.14;104999;1288;73249;-88
2023/06/17 05:02:10;;;;;;;13.60;12.50;;;;;;;16.76;66.22;100549.08;105158;1289;67416;-88
2023/06/17 05:05:56;;;;;;;14.80;13.30;;;;;;;17.43;66.39;100547.30;105327;1288;71162;-89
2023/06/17 05:09:23;;;;;;;14.60;12.50;;;;;;;18.16;65.86;100549.14;105394;1287;60553;-89
2023/06/17 05:12:56;;;;;;;12.80;11.80;;;;;;;18.82;65.51;100550.86;105356;1288;59309;-88
2023/06/17 05:16:43;;;;;;;13.00;11.90;;;;;;;19.50;65.39;100551.14;104964;1288;71946;-88
2023/06/17 05:20:29;;;;;;;12.30;11.20;;;;;;;20.16;65.21;100546.91;106368;1288;67459;-89
2023/06/17 05:24:15;;;;;;;9.30;8.40;;;;;;;20.89;64.81;100543.36;104998;1287;72572;-88
2023/06/17 05:28:01;;;;;;;9.20;8.30;;;;;;;21.54;64.45;100541.27;105080;1288;60740;-89
2023/06/17 05:31:48;;;;;;;8.70;8.00;;;;;;;22.27;64.25;100537.08;104606;1294;59386;-90
2023/06/17 05:35:34;;;;;;;7.30;6.80;;;;;;;22.99;63.81;100539.56;104582;1294;73373;-89
2023/06/17 05:39:21;;;;;;;6.70;6.20;;;;;;;23.65;63.55;100537.88;105538;1293;68240;-89
2023/06/17 05:43:07;;;;;;;6.70;6.20;;;;;;;24.30;63.35;100530.46;104559;1293;72312;-90
2023/06/17 05:46:54;;;;;;;6.00;5.50;;;;;;;24.82;62.99;100533.59;104179;1299;60679;-90
2023/06/17 05:50:41;;;;;;;5.70;5.20;;;;;;;25.12;62.62;100535.34;104301;1299;59431;-89
2023/06/17 05:54:27;;;;;;;5.60;5.20;;;;;;;25.32;62.20;100540.48;104526;1300;73760;-90
2023/06/17 05:58:15;;;;;;;4.60;4.30;;;;;;;25.73;61.51;100535.58;104750;1300;67428;-89
2023/06/17 06:02:02;;;;;;;5.30;4.90;;;;;;;26.10;61.09;100541.77;104488;1297;71318;-90
2023/06/17 06:05:48;;;;;;;5.30;4.90;;;;;;;26.47;60.80;100545.45;104169;1303;60285;-89
2023/06/17 06:09:35;;;;;;;4.30;4.00;;;;;;;26.82;60.46;100552.18;104619;1299;59260;-90
2023/06/17 06:13:22;;;;;;;4.80;4.40;;;;;;;27.12;59.61;100554.90;105189;1300;73619;-90
2023/06/17 06:17:11;;;;;;;4.10;3.80;;;;;;;27.26;59.38;100557.02;104423;1300;67281;-90
2023/06/17 06:24:43;;;;;;;4.30;4.00;;;;;;;27.38;58.52;100560.25;104738;1300;60582;-90
2023/06/17 06:28:21;;;;;;;4.20;3.90;;;;;;;27.67;58.11;100557.50;104369;1302;59850;-91
2023/06/17 06:32:19;;;;;;;4.20;3.90;;;;;;;28.21;57.25;100558.96;104172;1298;72331;-88
2023/06/17 06:35:27;;;;;;;3.60;3.40;;;;;;;28.65;56.15;100560.96;104008;1299;70193;-88
2023/06/17 06:38:16;;;;;;;3.70;3.50;;;;;;;29.21;55.93;100564.20;104023;1299;75565;-88
2023/06/17 06:41:47;;;;;;;4.60;3.70;;;;;;;29.76;55.12;100569.25;104128;1299;60504;-89
2023/06/17 06:45:03;;;;;;;4.20;3.60;;;;;;;30.61;54.86;100569.32;103747;1305;60589;-89
2023/06/17 06:47:51;;;;;;;4.60;4.30;;;;;;;31.22;54.12;100570.84;104039;1308;72913;-89
2023/06/17 06:50:39;;;;;;;4.70;4.20;;;;;;;31.74;53.37;100574.27;104122;1308;68236;-89
2023/06/17 06:53:27;;;;;;;4.10;3.80;;;;;;;32.10;52.96;100570.23;103717;1305;72614;-89
2023/06/17 06:56:15;;;;;;;4.20;3.90;;;;;;;31.99;52.45;100565.39;104131;1305;57980;-88
2023/06/17 06:59:02;;;;;;;3.60;3.40;;;;;;;32.22;52.55;100560.52;105149;1308;58314;-89
2023/06/17 07:01:50;;;;;;;3.80;3.50;;;;;;;32.33;51.82;100560.23;104102;1303;72725;-89
2023/06/17 07:04:38;;;;;;;3.30;3.10;;;;;;;32.29;51.58;100560.89;104008;1302;69331;-88
2023/06/17 07:07:28;;;;;;;3.50;3.30;;;;;;;32.82;50.72;100562.34;104367;1303;71461;-88
2023/06/17 07:10:20;;;;;;;3.40;3.20;;;;;;;33.25;49.54;100555.86;103977;1304;59914;-90
2023/06/17 07:13:33;;;;;;;3.90;3.60;;;;;;;33.72;48.28;100557.70;104136;1305;59271;-92
2023/06/17 07:16:23;;;;;;;3.20;3.00;;;;;;;34.43;48.16;100558.20;104175;1305;73021;-91
2023/06/17 07:19:47;;;;;;;3.20;2.70;;;;;;;35.22;47.46;100557.05;103832;1305;68409;-92
2023/06/17 07:23:29;;;;;;;3.50;3.20;;;;;;;35.97;46.35;100557.38;105069;1288;71845;-91
2023/06/17 07:26:20;;;;;;;2.80;2.60;;;;;;;36.06;45.63;100555.83;104878;1288;60362;-91
2023/06/17 07:29:16;;;;;;;2.50;2.30;;;;;;;35.45;46.06;100556.23;105166;1288;61689;-91
2023/06/17 07:32:25;;;;;;;3.50;3.00;;;;;;;35.30;45.99;100557.06;105190;1288;72389;-92
2023/06/17 07:35:31;;;;;;;3.00;2.30;;;;;;;35.61;44.94;100558.71;105369;1288;69992;-92
2023/06/17 07:39:01;;;;;;;4.40;2.80;;;;;;;34.77;44.09;100554.63;105273;1290;72922;-92
2023/06/17 07:42:16;;;;;;;2.90;2.70;;;;;;;34.13;44.19;100548.63;105447;1288;60408;-92
2023/06/17 07:45:26;;;;;;;5.00;3.70;;;;;;;34.51;43.72;100552.77;105416;1288;60397;-92
2023/06/17 07:48:52;;;;;;;2.70;2.60;;;;;;;36.29;42.07;100556.54;105297;1292;72615;-92
2023/06/17 07:52:02;;;;;;;3.30;3.10;;;;;;;37.65;41.01;100552.94;105386;1288;67372;-92
2023/06/17 07:54:51;;;;;;;2.90;2.70;;;;;;;38.79;40.17;100549.09;105649;1287;72664;-92
2023/06/17 07:57:54;;;;;;;2.90;2.60;;;;;;;39.54;39.81;100547.84;105258;1288;60458;-92
2023/06/17 08:00:41;;;;;;;3.00;2.80;;;;;;;40.59;39.10;100543.70;105279;1288;61706;-93
2023/06/17 08:03:28;;;;;;;2.30;2.00;;;;;;;41.50;38.55;100546.16;105243;1288;72876;-92
2023/06/17 08:06:14;;;;;;;2.80;2.60;;;;;;;40.57;37.49;100548.83;105199;1289;68651;-92
2023/06/17 08:09:02;;;;;;;3.30;2.90;;;;;;;38.60;37.70;100543.20;105259;1290;73369;-92
2023/06/17 08:11:49;;;;;;;2.70;2.50;;;;;;;39.74;37.66;100543.50;105282;1287;61250;-92
2023/06/17 08:14:35;;;;;;;2.90;2.70;;;;;;;41.32;36.66;100541.62;105178;1290;60684;-93
2023/06/17 08:17:21;;;;;;;3.10;2.90;;;;;;;42.62;35.66;100543.58;105249;1288;73025;-92
2023/06/17 08:20:09;;;;;;;3.10;2.90;;;;;;;43.03;34.59;100540.97;105358;1288;67157;-92
2023/06/17 08:22:56;;;;;;;5.50;3.20;;;;;;;42.86;34.51;100543.20;105286;1288;71636;-93
2023/06/17 08:25:42;;;;;;;2.50;2.30;;;;;;;42.60;33.50;100543.88;105192;1295;60262;-93
2023/06/17 08:28:28;;;;;;;2.40;2.30;;;;;;;39.96;33.39;100544.02;105217;1288;60278;-92
2023/06/17 08:31:16;;;;;;;2.30;2.20;;;;;;;37.68;33.39;100540.55;105101;1289;73567;-92
2023/06/17 08:34:02;;;;;;;2.60;2.50;;;;;;;35.94;33.25;100537.74;105342;1288;67565;-92
2023/06/17 08:36:54;;;;;;;3.50;3.00;;;;;;;34.60;32.95;100538.77;105295;1288;72689;-92
2023/06/17 08:39:42;;;;;;;2.80;2.50;;;;;;;34.40;33.01;100535.20;105271;1292;60613;-92
2023/06/17 08:42:28;;;;;;;3.10;2.90;;;;;;;34.29;32.99;100540.43;105139;1291;60720;-92
2023/06/17 08:45:23;;;;;;;2.80;2.60;;;;;;;36.60;32.30;100540.50;105168;1288;72626;-92
2023/06/17 08:48:11;;;;;;;2.90;2.80;;;;;;;38.87;31.33;100539.33;105185;1290;67378;-92
2023/06/17 08:50:58;;;;;;;3.10;2.90;;;;;;;40.54;31.26;100536.09;105233;1288;75274;-93
2023/06/17 08:53:45;;;;;;;3.30;2.80;;;;;;;41.64;30.83;100536.99;105323;1290;60442;-93
2023/06/17 08:56:35;;;;;;;3.40;3.00;;;;;;;42.75;30.52;100538.06;105315;1288;60324;-92
2023/06/17 08:59:21;;;;;;;2.60;2.40;;;;;;;43.43;29.89;100535.70;105206;1288;72449;-93
2023/06/17 09:02:12;;;;;;;2.80;2.70;;;;;;;42.37;29.62;100532.16;105197;1288;68393;-93
2023/06/17 09:05:04;;;;;;;3.40;3.10;;;;;;;39.83;29.63;100530.64;105220;1288;71283;-93
2023/06/17 09:07:51;;;;;;;6.40;3.30;;;;;;;37.79;29.67;100528.50;105133;1288;60516;-92
2023/06/17 09:10:45;;;;;;;3.00;2.80;;;;;;;36.09;29.51;100522.08;105180;1288;60353;-92
2023/06/17 09:13:32;;;;;;;3.40;3.20;;;;;;;34.52;29.48;100524.54;105062;1289;72451;-92
2023/06/17 09:16:31;;;;;;;3.40;3.20;;;;;;;33.34;29.50;100516.48;105214;1291;67747;-92
2023/06/17 09:19:23;;;;;;;3.40;2.80;;;;;;;32.36;29.57;100514.22;105178;1292;72148;-92
2023/06/17 09:22:12;;;;;;;3.00;2.70;;;;;;;31.57;29.64;100513.91;105241;1288;60370;-91
2023/06/17 09:24:59;;;;;;;3.60;3.30;;;;;;;30.68;29.67;100510.89;105332;1289;60492;-92
2023/06/17 09:27:52;;;;;;;4.00;3.70;;;;;;;30.09;30.16;100508.48;105259;1288;72445;-92
2023/06/17 09:30:42;;;;;;;4.10;3.70;;;;;;;29.59;30.34;100507.63;105226;1290;69005;-91
2023/06/17 09:33:29;;;;;;;3.80;3.50;;;;;;;29.13;30.52;100508.39;105288;1290;71382;-91
2023/06/17 09:36:17;;;;;;;3.60;3.30;;;;;;;28.71;30.62;100506.64;105229;1288;60473;-91
2023/06/17 09:39:11;;;;;;;4.20;3.70;;;;;;;28.33;30.98;100506.11;105380;1288;60495;-91
2023/06/17 09:42:10;;;;;;;4.50;3.80;;;;;;;27.96;30.98;100506.67;105384;1288;73719;-91
2023/06/17 09:45:00;;;;;;;3.40;3.20;;;;;;;27.65;31.26;100499.02;105194;1288;67378;-90
2023/06/17 09:47:52;;;;;;;3.40;3.20;;;;;;;27.43;31.45;100494.13;105110;1288;71336;-90
2023/06/17 09:50:44;;;;;;;3.50;3.30;;;;;;;27.26;31.63;100490.44;105313;1288;60596;-90
2023/06/17 09:53:32;;;;;;;3.90;3.60;;;;;;;27.13;31.94;100494.80;105319;1287;60611;-90
2023/06/17 09:56:19;;;;;;;4.50;3.00;;;;;;;26.93;32.14;100492.80;105204;1289;73221;-91
2023/06/17 09:59:11;;;;;;;3.90;3.60;;;;;;;26.78;32.54;100493.42;105156;1290;68632;-91
2023/06/17 10:01:57;;;;;;;3.80;3.50;;;;;;;26.68;32.55;100489.13;105222;1290;71217;-91
2023/06/17 10:04:44;;;;;;;6.70;3.90;;;;;;;26.61;32.89;100489.59;105220;1288;60307;-91
2023/06/17 10:07:31;;;;;;;4.00;3.70;;;;;;;26.55;33.12;100492.02;105238;1290;59366;-90
2023/06/17 10:10:20;;;;;;;4.10;3.50;;;;;;;26.51;33.27;100491.89;105230;1289;75324;-91
2023/06/17 10:13:09;;;;;;;3.70;3.40;;;;;;;26.48;33.42;100490.20;105102;1291;70078;-91
2023/06/17 10:15:57;;;;;;;3.60;2.90;;;;;;;26.39;33.56;100485.48;105137;1288;72443;-91
2023/06/17 10:18:48;;;;;;;3.60;3.30;;;;;;;26.26;33.61;100485.98;105160;1291;60013;-91
2023/06/17 10:21:40;;;;;;;3.40;3.20;;;;;;;26.06;33.94;100480.38;105257;1288;59518;-90
2023/06/17 10:24:27;;;;;;;3.90;3.40;;;;;;;25.99;34.11;100483.11;105207;1290;72356;-92
2023/06/17 10:27:14;;;;;;;3.70;3.40;;;;;;;26.02;34.34;100481.83;105142;1290;67243;-89
2023/06/17 10:30:00;;;;;;;3.80;3.50;;;;;;;26.12;34.64;100482.05;105333;1291;72601;-89
2023/06/17 10:32:57;;;;;;;4.20;3.30;;;;;;;26.18;34.71;100484.86;105238;1288;60391;-88
2023/06/17 10:35:44;;;;;;;3.80;3.50;;;;;;;26.23;34.91;100483.79;105326;1287;63886;-89
2023/06/17 10:38:33;;;;;;;4.50;3.80;;;;;;;26.25;35.17;100484.61;105162;1288;74285;-89
2023/06/17 10:41:19;;;;;;;4.30;4.00;;;;;;;26.28;35.38;100485.78;105288;1288;67927;-89
2023/06/17 10:44:30;;;;;;;4.60;4.30;;;;;;;26.22;35.35;100483.84;105306;1288;71226;-88
2023/06/17 10:47:20;;;;;;;4.10;3.80;;;;;;;26.08;35.56;100476.55;105267;1287;59213;-88
2023/06/17 10:50:07;;;;;;;4.70;4.40;;;;;;;26.03;35.72;100474.80;104914;1288;60464;-87
2023/06/17 10:52:59;;;;;;;4.80;3.90;;;;;;;25.93;35.87;100475.65;105306;1287;72463;-86
2023/06/17 10:55:45;;;;;;;9.70;4.20;;;;;;;25.79;36.17;100475.10;105201;1287;67180;-86
2023/06/17 10:58:36;;;;;;;7.70;4.40;;;;;;;25.75;36.35;100472.75;105171;1288;72633;-86
2023/06/17 11:01:23;;;;;;;4.10;3.80;;;;;;;25.64;36.45;100473.32;105023;1288;61526;-86
2023/06/17 11:04:10;;;;;;;4.50;4.20;;;;;;;25.47;36.53;100470.94;105178;1288;62127;-86
2023/06/17 11:06:58;;;;;;;4.70;4.30;;;;;;;25.36;36.82;100467.96;105160;1288;72433;-86
2023/06/17 11:09:44;;;;;;;5.40;4.20;;;;;;;25.30;36.95;100467.05;105217;1288;67320;-86
2023/06/17 11:12:30;;;;;;;7.70;4.70;;;;;;;25.20;37.09;100461.98;105288;1288;71222;-86
2023/06/17 11:15:16;;;;;;;4.20;3.90;;;;;;;25.10;37.29;100458.90;105102;1288;60452;-86
2023/06/17 11:18:03;;;;;;;5.80;5.40;;;;;;;25.04;37.33;100457.09;105202;1288;60393;-86
2023/06/17 11:20:49;;;;;;;6.40;5.80;;;;;;;24.91;37.43;100461.80;105095;1288;75031;-86
2023/06/17 11:23:39;;;;;;;7.50;5.50;;;;;;;24.81;37.56;100460.52;105308;1288;66767;-86
2023/06/17 11:26:26;;;;;;;5.00;4.70;;;;;;;24.69;37.87;100456.32;105163;1288;71209;-86
2023/06/17 11:29:12;;;;;;;7.40;5.20;;;;;;;24.76;38.31;100457.36;105237;1288;60688;-86
2023/06/17 11:32:00;;;;;;;5.90;5.40;;;;;;;24.89;38.30;100461.48;105188;1287;60476;-86
2023/06/17 11:34:46;;;;;;;5.20;4.80;;;;;;;24.99;38.23;100463.98;105262;1288;72350;-86
2023/06/17 11:37:32;;;;;;;5.50;5.10;;;;;;;25.06;38.49;100460.65;105328;1287;70005;-86
2023/06/17 11:40:18;;;;;;;5.60;4.90;;;;;;;25.13;38.60;100461.54;105259;1288;71634;-86
2023/06/17 11:43:05;;;;;;;6.10;5.10;;;;;;;25.18;38.55;100466.76;105126;1290;60372;-86
2023/06/17 11:45:54;;;;;;;5.70;5.30;;;;;;;25.12;38.67;100461.94;105245;1288;60401;-86
2023/06/17 11:48:46;;;;;;;8.90;4.60;;;;;;;25.04;38.86;100463.95;104921;1288;72387;-88
2023/06/17 11:51:32;;;;;;;5.70;5.30;;;;;;;24.98;39.01;100465.34;105279;1288;70537;-88
2023/06/17 11:54:19;;;;;;;5.80;5.20;;;;;;;24.92;39.11;100465.95;105382;1288;73421;-88
2023/06/17 11:57:07;;;;;;;14.40;6.30;;;;;;;24.88;39.18;100464.39;105365;1288;60443;-88
2023/06/17 12:00:09;;;;;;;18.90;9.10;;;;;;;24.87;39.27;100467.25;105232;1288;61254;-87
2023/06/17 12:02:57;;;;;;;9.20;5.00;;;;;;;24.89;39.34;100468.20;105353;1288;74094;-88
2023/06/17 12:05:43;;;;;;;8.30;7.60;;;;;;;24.83;39.42;100463.69;105400;1288;67270;-88
2023/06/17 12:08:34;;;;;;;5.60;5.20;;;;;;;24.80;39.61;100460.98;105336;1293;71269;-88
2023/06/17 12:11:30;;;;;;;6.20;5.60;;;;;;;24.71;39.53;100457.91;105252;1288;60475;-88
2023/06/17 12:14:19;;;;;;;5.60;5.10;;;;;;;24.62;39.80;100457.97;105117;1288;60217;-88
2023/06/17 12:17:06;;;;;;;5.90;5.50;;;;;;;24.56;39.91;100457.86;105272;1288;73461;-88
2023/06/17 12:19:59;;;;;;;5.60;5.00;;;;;;;24.53;40.14;100456.89;105403;1288;67488;-88
2023/06/17 12:22:48;;;;;;;5.20;4.80;;;;;;;24.55;40.15;100462.67;105542;1288;71378;-88
2023/06/17 12:25:34;;;;;;;5.10;4.80;;;;;;;24.56;40.24;100461.71;105481;1288;60486;-88
2023/06/17 12:28:23;;;;;;;8.00;5.40;;;;;;;24.52;40.32;100461.89;105502;1288;59094;-88
2023/06/17 12:31:09;;;;;;;6.90;6.00;;;;;;;24.39;40.24;100459.31;105599;1287;72384;-88
2023/06/17 12:33:56;;;;;;;9.70;6.40;;;;;;;24.28;40.52;100461.58;105346;1290;67296;-88
2023/06/17 12:36:42;;;;;;;6.20;5.70;;;;;;;24.23;40.69;100458.80;105393;1289;71278;-88
2023/06/17 12:39:31;;;;;;;6.20;5.70;;;;;;;24.18;40.96;100456.02;105543;1288;57953;-88
2023/06/17 12:42:17;;;;;;;6.00;5.40;;;;;;;24.20;41.09;100459.40;105347;1294;60439;-89
2023/06/17 12:45:06;;;;;;;6.10;5.70;;;;;;;24.16;41.22;100462.34;105450;1288;73600;-88
2023/06/17 12:47:52;;;;;;;6.20;5.70;;;;;;;24.17;41.35;100462.89;105419;1289;69423;-87
2023/06/17 12:50:38;;;;;;;5.80;5.40;;;;;;;24.15;41.38;100463.59;105494;1288;73093;-88
2023/06/17 12:53:24;;;;;;;6.20;5.50;;;;;;;24.08;41.72;100469.21;105403;1291;60502;-88
2023/06/17 12:56:10;;;;;;;6.50;6.00;;;;;;;24.00;41.69;100470.54;105527;1288;60416;-88
2023/06/17 12:58:56;;;;;;;6.40;5.90;;;;;;;23.95;41.94;100471.14;105378;1290;72431;-88
2023/06/17 13:01:43;;;;;;;6.00;5.60;;;;;;;23.95;42.07;100471.96;105232;1288;67419;-88
2023/06/17 13:04:29;;;;;;;6.90;6.40;;;;;;;23.92;42.28;100472.90;105440;1292;72393;-88
2023/06/17 13:07:16;;;;;;;6.60;6.00;;;;;;;23.88;42.26;100471.33;105385;1291;59148;-88
2023/06/17 13:10:04;;;;;;;5.60;5.10;;;;;;;23.77;42.63;100470.51;105521;1288;59152;-88
2023/06/17 13:12:50;;;;;;;6.30;5.80;;;;;;;23.75;42.83;100468.21;105357;1291;73127;-88
2023/06/17 13:15:36;;;;;;;7.60;5.80;;;;;;;23.79;43.02;100467.76;105477;1288;67450;-88
2023/06/17 13:18:22;;;;;;;6.00;5.60;;;;;;;23.83;43.21;100472.05;105501;1288;73889;-88
2023/06/17 13:21:08;;;;;;;5.00;4.60;;;;;;;23.89;43.07;100474.91;105341;1288;60028;-88
2023/06/17 13:23:54;;;;;;;5.50;5.10;;;;;;;23.84;43.04;100476.70;105343;1288;58897;-88
2023/06/17 13:26:41;;;;;;;7.70;6.20;;;;;;;23.88;43.29;100478.50;105274;1288;73466;-88
2023/06/17 13:29:27;;;;;;;5.80;5.00;;;;;;;24.04;43.22;100478.69;105436;1288;69146;-88
2023/06/17 13:32:13;;;;;;;6.70;5.10;;;;;;;24.20;43.08;100476.42;105427;1291;74105;-88
2023/06/17 13:35:02;;;;;;;6.60;6.00;;;;;;;24.31;42.98;100486.76;105264;1290;60486;-88
2023/06/17 13:37:49;;;;;;;4.50;4.00;;;;;;;24.33;42.96;100494.17;105353;1287;58764;-88
2023/06/17 13:40:35;;;;;;;;;;;;;;;24.27;42.99;100495.35;105335;1289;71408;-88
2023/06/17 13:43:21;;;;;;;7.40;6.00;;;;;;;24.23;42.78;100495.61;105066;1288;281792;-88
2023/06/17 13:46:08;;;;;;;8.20;7.00;;;;;;;24.15;42.85;100497.05;105252;1288;71361;-88
2023/06/17 13:48:54;;;;;;;4.60;3.80;;;;;;;23.92;42.69;100497.39;105481;1288;60380;-88
2023/06/17 13:51:41;;;;;;;7.30;4.70;;;;;;;23.71;42.87;100499.80;105366;1288;59189;-88
2023/06/17 13:54:27;;;;;;;3.50;3.20;;;;;;;23.61;42.97;100496.14;105244;1288;72267;-88
2023/06/17 13:57:13;;;;;;;3.20;2.80;;;;;;;23.52;42.92;100496.97;105250;1289;67264;-88
2023/06/17 13:59:58;;;;;;;3.40;3.00;;;;;;;23.37;42.89;100503.84;105497;1288;74134;-88
2023/06/17 14:02:42;;;;;;;3.30;2.50;;;;;;;23.21;42.83;100510.95;105368;1289;60309;-88
2023/06/17 14:05:26;;;;;;;2.30;2.10;;;;;;;23.05;42.88;100508.90;105372;1288;58869;-88
2023/06/17 14:08:10;;;;;;;2.50;2.30;;;;;;;22.88;42.99;100500.08;105457;1291;72418;-87
2023/06/17 14:10:54;;;;;;;2.90;1.90;;;;;;;22.76;42.89;100497.05;105378;1288;67218;-88